sensor_id;sensor_type;location;lat;lon;timestamp;P1;durP1;ratioP1;P2;durP2;ratioP2
14116;SDS011;7137;51.436;6.544;2023-01-30T00:02:40;34.57;;;23.97;;
14116;SDS011;7137;51.436;6.544;2023-01-30T00:05:41;34.27;;;23.60;;
14116;SDS011;7137;51.436;6.544;2023-01-30T00:08:43;32.37;;;23.47;;
14116;SDS011;7137;51.436;6.544;2023-01-30T00:11:46;35.03;;;23.67;;
14116;SDS011;7137;51.436;6.544;2023-01-30T00:14:48;31.87;;;23.47;;
14116;SDS011;7137;51.436;6.544;2023-01-30T00:17:49;33.83;;;25.03;;
14116;SDS011;7137;51.436;6.544;2023-01-30T00:20:53;33.10;;;23.60;;
14116;SDS011;7137;51.436;6.544;2023-01-30T00:23:55;33.73;;;24.30;;
14116;SDS011;7137;51.436;6.544;2023-01-30T00:27:00;33.53;;;24.47;;
14116;SDS011;7137;51.436;6.544;2023-01-30T00:30:01;34.07;;;24.03;;
14116;SDS011;7137;51.436;6.544;2023-01-30T00:33:06;35.00;;;24.93;;
14116;SDS011;7137;51.436;6.544;2023-01-30T00:36:09;31.43;;;23.17;;
14116;SDS011;7137;51.436;6.544;2023-01-30T00:39:11;33.40;;;23.60;;
14116;SDS011;7137;51.436;6.544;2023-01-30T00:42:14;33.33;;;23.67;;
14116;SDS011;7137;51.436;6.544;2023-01-30T00:45:33;29.83;;;23.20;;
14116;SDS011;7137;51.436;6.544;2023-01-30T00:48:52;31.60;;;24.10;;
14116;SDS011;7137;51.436;6.544;2023-01-30T00:51:54;36.37;;;24.30;;
14116;SDS011;7137;51.436;6.544;2023-01-30T00:54:55;33.47;;;23.70;;
14116;SDS011;7137;51.436;6.544;2023-01-30T00:57:58;31.97;;;23.43;;
14116;SDS011;7137;51.436;6.544;2023-01-30T01:01:00;32.27;;;23.80;;
14116;SDS011;7137;51.436;6.544;2023-01-30T01:04:01;33.87;;;23.60;;
14116;SDS011;7137;51.436;6.544;2023-01-30T01:07:03;33.77;;;23.70;;
14116;SDS011;7137;51.436;6.544;2023-01-30T01:10:06;30.80;;;23.23;;
14116;SDS011;7137;51.436;6.544;2023-01-30T01:13:10;32.70;;;22.90;;
14116;SDS011;7137;51.436;6.544;2023-01-30T01:16:11;30.60;;;23.33;;
14116;SDS011;7137;51.436;6.544;2023-01-30T01:19:13;32.33;;;22.97;;
14116;SDS011;7137;51.436;6.544;2023-01-30T01:22:14;32.73;;;24.37;;
14116;SDS011;7137;51.436;6.544;2023-01-30T01:25:16;31.47;;;23.73;;
14116;SDS011;7137;51.436;6.544;2023-01-30T01:28:20;33.63;;;24.33;;
14116;SDS011;7137;51.436;6.544;2023-01-30T01:31:21;31.77;;;23.27;;
14116;SDS011;7137;51.436;6.544;2023-01-30T01:34:24;31.47;;;22.70;;
14116;SDS011;7137;51.436;6.544;2023-01-30T01:37:26;32.07;;;23.53;;
14116;SDS011;7137;51.436;6.544;2023-01-30T01:40:27;29.63;;;22.60;;
14116;SDS011;7137;51.436;6.544;2023-01-30T01:43:59;31.20;;;22.13;;
14116;SDS011;7137;51.436;6.544;2023-01-30T01:47:02;27.33;;;21.37;;
14116;SDS011;7137;51.436;6.544;2023-01-30T01:50:04;25.90;;;21.37;;
14116;SDS011;7137;51.436;6.544;2023-01-30T01:53:09;29.67;;;21.20;;
14116;SDS011;7137;51.436;6.544;2023-01-30T01:56:13;27.43;;;22.33;;
14116;SDS011;7137;51.436;6.544;2023-01-30T01:59:20;28.20;;;21.83;;
14116;SDS011;7137;51.436;6.544;2023-01-30T02:02:25;28.10;;;21.17;;
14116;SDS011;7137;51.436;6.544;2023-01-30T02:05:27;31.17;;;21.60;;
14116;SDS011;7137;51.436;6.544;2023-01-30T02:08:34;28.07;;;21.40;;
14116;SDS011;7137;51.436;6.544;2023-01-30T02:11:41;29.80;;;23.10;;
14116;SDS011;7137;51.436;6.544;2023-01-30T02:14:49;29.10;;;21.37;;
14116;SDS011;7137;51.436;6.544;2023-01-30T02:17:52;30.00;;;21.60;;
14116;SDS011;7137;51.436;6.544;2023-01-30T02:21:02;27.60;;;21.63;;
14116;SDS011;7137;51.436;6.544;2023-01-30T02:24:20;27.67;;;21.77;;
14116;SDS011;7137;51.436;6.544;2023-01-30T02:27:42;31.53;;;22.67;;
14116;SDS011;7137;51.436;6.544;2023-01-30T02:34:25;29.67;;;21.03;;
14116;SDS011;7137;51.436;6.544;2023-01-30T02:37:39;28.60;;;21.47;;
14116;SDS011;7137;51.436;6.544;2023-01-30T02:40:51;29.67;;;21.13;;
14116;SDS011;7137;51.436;6.544;2023-01-30T02:44:03;26.53;;;20.77;;
14116;SDS011;7137;51.436;6.544;2023-01-30T02:47:09;28.77;;;21.03;;
14116;SDS011;7137;51.436;6.544;2023-01-30T02:50:16;27.17;;;20.43;;
14116;SDS011;7137;51.436;6.544;2023-01-30T02:53:21;26.50;;;21.07;;
14116;SDS011;7137;51.436;6.544;2023-01-30T02:56:23;29.73;;;21.83;;
14116;SDS011;7137;51.436;6.544;2023-01-30T02:59:25;26.70;;;20.67;;
14116;SDS011;7137;51.436;6.544;2023-01-30T03:02:35;29.50;;;21.57;;
14116;SDS011;7137;51.436;6.544;2023-01-30T03:06:19;27.90;;;20.87;;
14116;SDS011;7137;51.436;6.544;2023-01-30T03:09:36;27.83;;;20.43;;
14116;SDS011;7137;51.436;6.544;2023-01-30T03:12:50;27.97;;;20.37;;
14116;SDS011;7137;51.436;6.544;2023-01-30T03:16:01;30.50;;;21.77;;
14116;SDS011;7137;51.436;6.544;2023-01-30T03:19:08;29.97;;;21.50;;
14116;SDS011;7137;51.436;6.544;2023-01-30T03:22:11;30.00;;;22.07;;
14116;SDS011;7137;51.436;6.544;2023-01-30T03:25:15;28.60;;;22.23;;
14116;SDS011;7137;51.436;6.544;2023-01-30T03:28:19;29.50;;;22.43;;
14116;SDS011;7137;51.436;6.544;2023-01-30T03:31:21;27.73;;;21.37;;
14116;SDS011;7137;51.436;6.544;2023-01-30T03:34:24;28.80;;;21.13;;
14116;SDS011;7137;51.436;6.544;2023-01-30T03:37:26;32.63;;;21.80;;
14116;SDS011;7137;51.436;6.544;2023-01-30T03:40:27;29.00;;;22.03;;
14116;SDS011;7137;51.436;6.544;2023-01-30T03:43:29;33.60;;;21.40;;
14116;SDS011;7137;51.436;6.544;2023-01-30T03:46:31;27.53;;;21.50;;
14116;SDS011;7137;51.436;6.544;2023-01-30T03:49:34;29.23;;;21.80;;
14116;SDS011;7137;51.436;6.544;2023-01-30T03:52:35;28.17;;;21.63;;
14116;SDS011;7137;51.436;6.544;2023-01-30T03:55:37;30.90;;;21.47;;
14116;SDS011;7137;51.436;6.544;2023-01-30T03:58:39;29.60;;;21.63;;
14116;SDS011;7137;51.436;6.544;2023-01-30T04:01:40;27.70;;;21.63;;
14116;SDS011;7137;51.436;6.544;2023-01-30T04:04:43;27.67;;;21.00;;
14116;SDS011;7137;51.436;6.544;2023-01-30T04:07:45;28.37;;;20.87;;
14116;SDS011;7137;51.436;6.544;2023-01-30T04:10:46;28.73;;;22.13;;
14116;SDS011;7137;51.436;6.544;2023-01-30T04:13:48;28.60;;;21.77;;
14116;SDS011;7137;51.436;6.544;2023-01-30T04:16:49;28.73;;;22.03;;
14116;SDS011;7137;51.436;6.544;2023-01-30T04:19:52;28.83;;;21.17;;
14116;SDS011;7137;51.436;6.544;2023-01-30T04:22:54;28.90;;;21.27;;
14116;SDS011;7137;51.436;6.544;2023-01-30T04:25:56;28.23;;;21.53;;
14116;SDS011;7137;51.436;6.544;2023-01-30T04:28:57;29.90;;;22.13;;
14116;SDS011;7137;51.436;6.544;2023-01-30T04:31:59;27.13;;;20.67;;
14116;SDS011;7137;51.436;6.544;2023-01-30T04:35:02;25.40;;;20.10;;
14116;SDS011;7137;51.436;6.544;2023-01-30T04:38:04;27.63;;;20.37;;
14116;SDS011;7137;51.436;6.544;2023-01-30T04:41:06;25.83;;;20.57;;
14116;SDS011;7137;51.436;6.544;2023-01-30T04:44:07;28.03;;;20.87;;
14116;SDS011;7137;51.436;6.544;2023-01-30T04:47:09;27.53;;;19.97;;
14116;SDS011;7137;51.436;6.544;2023-01-30T04:50:13;26.87;;;20.33;;
14116;SDS011;7137;51.436;6.544;2023-01-30T04:53:15;25.13;;;20.20;;
14116;SDS011;7137;51.436;6.544;2023-01-30T04:56:17;24.73;;;19.93;;
14116;SDS011;7137;51.436;6.544;2023-01-30T04:59:22;25.00;;;20.10;;
14116;SDS011;7137;51.436;6.544;2023-01-30T05:02:23;23.10;;;18.83;;
14116;SDS011;7137;51.436;6.544;2023-01-30T05:05:26;24.37;;;19.60;;
14116;SDS011;7137;51.436;6.544;2023-01-30T05:08:28;23.10;;;18.23;;
14116;SDS011;7137;51.436;6.544;2023-01-30T05:11:30;24.67;;;18.77;;
14116;SDS011;7137;51.436;6.544;2023-01-30T05:14:32;24.97;;;19.57;;
14116;SDS011;7137;51.436;6.544;2023-01-30T05:17:34;22.90;;;18.70;;
14116;SDS011;7137;51.436;6.544;2023-01-30T05:20:38;23.37;;;18.47;;
14116;SDS011;7137;51.436;6.544;2023-01-30T05:23:39;23.27;;;18.73;;
14116;SDS011;7137;51.436;6.544;2023-01-30T05:26:41;24.03;;;18.87;;
14116;SDS011;7137;51.436;6.544;2023-01-30T05:29:43;22.37;;;18.03;;
14116;SDS011;7137;51.436;6.544;2023-01-30T05:32:45;23.47;;;18.90;;
14116;SDS011;7137;51.436;6.544;2023-01-30T05:35:48;25.67;;;19.63;;
14116;SDS011;7137;51.436;6.544;2023-01-30T05:38:50;22.77;;;19.00;;
14116;SDS011;7137;51.436;6.544;2023-01-30T05:41:52;22.00;;;18.87;;
14116;SDS011;7137;51.436;6.544;2023-01-30T05:44:53;22.60;;;18.50;;
14116;SDS011;7137;51.436;6.544;2023-01-30T05:47:55;21.50;;;18.43;;
14116;SDS011;7137;51.436;6.544;2023-01-30T05:50:58;22.53;;;17.90;;
14116;SDS011;7137;51.436;6.544;2023-01-30T05:54:00;23.43;;;18.50;;
14116;SDS011;7137;51.436;6.544;2023-01-30T05:57:01;21.60;;;17.70;;
14116;SDS011;7137;51.436;6.544;2023-01-30T06:00:04;23.77;;;17.73;;
14116;SDS011;7137;51.436;6.544;2023-01-30T06:03:07;24.73;;;19.20;;
14116;SDS011;7137;51.436;6.544;2023-01-30T06:06:10;22.10;;;18.20;;
14116;SDS011;7137;51.436;6.544;2023-01-30T06:09:12;20.90;;;16.70;;
14116;SDS011;7137;51.436;6.544;2023-01-30T06:12:14;21.93;;;18.50;;
14116;SDS011;7137;51.436;6.544;2023-01-30T06:15:15;21.83;;;18.53;;
14116;SDS011;7137;51.436;6.544;2023-01-30T06:18:17;22.30;;;19.57;;
14116;SDS011;7137;51.436;6.544;2023-01-30T06:21:20;23.90;;;17.80;;
14116;SDS011;7137;51.436;6.544;2023-01-30T06:24:21;21.40;;;19.20;;
14116;SDS011;7137;51.436;6.544;2023-01-30T06:27:23;22.70;;;18.27;;
14116;SDS011;7137;51.436;6.544;2023-01-30T06:30:25;22.53;;;18.13;;
14116;SDS011;7137;51.436;6.544;2023-01-30T06:33:26;24.83;;;19.07;;
14116;SDS011;7137;51.436;6.544;2023-01-30T06:36:29;22.27;;;18.83;;
14116;SDS011;7137;51.436;6.544;2023-01-30T06:39:31;22.27;;;18.00;;
14116;SDS011;7137;51.436;6.544;2023-01-30T06:42:32;22.70;;;18.83;;
14116;SDS011;7137;51.436;6.544;2023-01-30T06:45:34;24.53;;;20.17;;
14116;SDS011;7137;51.436;6.544;2023-01-30T06:48:35;20.30;;;16.83;;
14116;SDS011;7137;51.436;6.544;2023-01-30T06:51:38;28.07;;;18.93;;
14116;SDS011;7137;51.436;6.544;2023-01-30T06:54:40;21.47;;;18.47;;
14116;SDS011;7137;51.436;6.544;2023-01-30T06:57:41;25.00;;;18.27;;
14116;SDS011;7137;51.436;6.544;2023-01-30T07:00:44;24.43;;;18.33;;
14116;SDS011;7137;51.436;6.544;2023-01-30T07:03:45;22.87;;;18.07;;
14116;SDS011;7137;51.436;6.544;2023-01-30T07:06:49;25.33;;;17.97;;
14116;SDS011;7137;51.436;6.544;2023-01-30T07:09:51;25.30;;;18.43;;
14116;SDS011;7137;51.436;6.544;2023-01-30T07:12:53;23.07;;;17.53;;
14116;SDS011;7137;51.436;6.544;2023-01-30T07:15:54;24.70;;;17.80;;
14116;SDS011;7137;51.436;6.544;2023-01-30T07:18:56;23.17;;;16.43;;
14116;SDS011;7137;51.436;6.544;2023-01-30T07:21:59;18.63;;;15.63;;
14116;SDS011;7137;51.436;6.544;2023-01-30T07:25:00;23.63;;;16.27;;
14116;SDS011;7137;51.436;6.544;2023-01-30T07:28:02;23.47;;;14.93;;
14116;SDS011;7137;51.436;6.544;2023-01-30T07:31:04;19.53;;;14.53;;
14116;SDS011;7137;51.436;6.544;2023-01-30T07:34:06;17.07;;;14.43;;
14116;SDS011;7137;51.436;6.544;2023-01-30T07:37:08;20.57;;;14.20;;
14116;SDS011;7137;51.436;6.544;2023-01-30T07:40:11;20.13;;;13.80;;
14116;SDS011;7137;51.436;6.544;2023-01-30T07:43:13;18.03;;;12.17;;
14116;SDS011;7137;51.436;6.544;2023-01-30T07:46:15;17.97;;;11.37;;
14116;SDS011;7137;51.436;6.544;2023-01-30T07:49:16;16.83;;;10.10;;
14116;SDS011;7137;51.436;6.544;2023-01-30T07:52:19;16.20;;;8.53;;
14116;SDS011;7137;51.436;6.544;2023-01-30T07:55:21;18.50;;;7.90;;
14116;SDS011;7137;51.436;6.544;2023-01-30T07:58:22;16.50;;;7.50;;
14116;SDS011;7137;51.436;6.544;2023-01-30T08:01:24;14.80;;;6.70;;
14116;SDS011;7137;51.436;6.544;2023-01-30T08:04:26;14.27;;;6.43;;
14116;SDS011;7137;51.436;6.544;2023-01-30T08:07:28;13.80;;;5.77;;
14116;SDS011;7137;51.436;6.544;2023-01-30T08:10:30;14.83;;;5.33;;
14116;SDS011;7137;51.436;6.544;2023-01-30T08:13:32;13.77;;;5.70;;
14116;SDS011;7137;51.436;6.544;2023-01-30T08:16:33;13.10;;;4.87;;
14116;SDS011;7137;51.436;6.544;2023-01-30T08:19:36;11.57;;;4.33;;
14116;SDS011;7137;51.436;6.544;2023-01-30T08:22:39;13.73;;;4.20;;
14116;SDS011;7137;51.436;6.544;2023-01-30T08:25:40;11.87;;;4.07;;
14116;SDS011;7137;51.436;6.544;2023-01-30T08:28:41;11.50;;;3.80;;
14116;SDS011;7137;51.436;6.544;2023-01-30T08:31:43;14.37;;;3.90;;
14116;SDS011;7137;51.436;6.544;2023-01-30T08:34:45;12.90;;;3.67;;
14116;SDS011;7137;51.436;6.544;2023-01-30T08:37:48;12.27;;;3.53;;
14116;SDS011;7137;51.436;6.544;2023-01-30T08:40:49;13.30;;;3.33;;
14116;SDS011;7137;51.436;6.544;2023-01-30T08:43:51;14.20;;;3.07;;
14116;SDS011;7137;51.436;6.544;2023-01-30T08:46:52;12.43;;;3.30;;
14116;SDS011;7137;51.436;6.544;2023-01-30T08:49:54;10.93;;;3.20;;
14116;SDS011;7137;51.436;6.544;2023-01-30T08:52:57;13.57;;;3.67;;
14116;SDS011;7137;51.436;6.544;2023-01-30T08:56:03;11.83;;;3.47;;
14116;SDS011;7137;51.436;6.544;2023-01-30T08:59:05;13.17;;;2.97;;
14116;SDS011;7137;51.436;6.544;2023-01-30T09:02:08;12.53;;;3.17;;
14116;SDS011;7137;51.436;6.544;2023-01-30T09:05:10;9.47;;;2.63;;
14116;SDS011;7137;51.436;6.544;2023-01-30T09:08:13;10.47;;;2.90;;
14116;SDS011;7137;51.436;6.544;2023-01-30T09:11:14;11.13;;;2.67;;
14116;SDS011;7137;51.436;6.544;2023-01-30T09:14:16;13.27;;;2.63;;
14116;SDS011;7137;51.436;6.544;2023-01-30T09:17:18;13.97;;;2.90;;
14116;SDS011;7137;51.436;6.544;2023-01-30T09:20:20;10.53;;;2.53;;
14116;SDS011;7137;51.436;6.544;2023-01-30T09:23:23;13.17;;;3.27;;
14116;SDS011;7137;51.436;6.544;2023-01-30T09:26:25;13.23;;;2.43;;
14116;SDS011;7137;51.436;6.544;2023-01-30T09:29:26;11.73;;;2.93;;
14116;SDS011;7137;51.436;6.544;2023-01-30T09:32:28;13.30;;;2.70;;
14116;SDS011;7137;51.436;6.544;2023-01-30T09:35:30;14.43;;;3.23;;
14116;SDS011;7137;51.436;6.544;2023-01-30T09:38:33;8.27;;;2.30;;
14116;SDS011;7137;51.436;6.544;2023-01-30T09:45:02;15.07;;;3.10;;
14116;SDS011;7137;51.436;6.544;2023-01-30T09:48:28;13.37;;;3.20;;
14116;SDS011;7137;51.436;6.544;2023-01-30T09:51:35;15.73;;;3.10;;
14116;SDS011;7137;51.436;6.544;2023-01-30T09:54:46;10.63;;;2.40;;
14116;SDS011;7137;51.436;6.544;2023-01-30T09:57:48;18.13;;;3.30;;
14116;SDS011;7137;51.436;6.544;2023-01-30T10:00:52;14.67;;;2.77;;
14116;SDS011;7137;51.436;6.544;2023-01-30T10:04:10;15.50;;;2.93;;
14116;SDS011;7137;51.436;6.544;2023-01-30T10:07:15;13.83;;;3.07;;
14116;SDS011;7137;51.436;6.544;2023-01-30T10:10:35;15.00;;;2.70;;
14116;SDS011;7137;51.436;6.544;2023-01-30T10:13:51;14.00;;;2.67;;
14116;SDS011;7137;51.436;6.544;2023-01-30T10:17:15;13.37;;;2.90;;
14116;SDS011;7137;51.436;6.544;2023-01-30T10:20:30;13.60;;;2.57;;
14116;SDS011;7137;51.436;6.544;2023-01-30T10:23:46;12.63;;;2.70;;
14116;SDS011;7137;51.436;6.544;2023-01-30T10:26:57;12.93;;;3.30;;
14116;SDS011;7137;51.436;6.544;2023-01-30T10:29:59;18.00;;;4.40;;
14116;SDS011;7137;51.436;6.544;2023-01-30T10:33:04;13.10;;;2.87;;
14116;SDS011;7137;51.436;6.544;2023-01-30T10:36:09;17.73;;;3.67;;
14116;SDS011;7137;51.436;6.544;2023-01-30T10:39:17;15.10;;;3.40;;
14116;SDS011;7137;51.436;6.544;2023-01-30T10:42:27;15.20;;;2.83;;
14116;SDS011;7137;51.436;6.544;2023-01-30T10:45:33;16.00;;;3.10;;
14116;SDS011;7137;51.436;6.544;2023-01-30T10:48:48;11.63;;;3.23;;
14116;SDS011;7137;51.436;6.544;2023-01-30T10:51:55;9.50;;;2.47;;
14116;SDS011;7137;51.436;6.544;2023-01-30T10:55:05;12.57;;;2.63;;
14116;SDS011;7137;51.436;6.544;2023-01-30T10:58:16;8.40;;;1.97;;
14116;SDS011;7137;51.436;6.544;2023-01-30T11:01:29;15.77;;;3.13;;
14116;SDS011;7137;51.436;6.544;2023-01-30T11:04:35;12.93;;;2.27;;
14116;SDS011;7137;51.436;6.544;2023-01-30T11:07:44;13.43;;;1.97;;
14116;SDS011;7137;51.436;6.544;2023-01-30T11:10:48;8.63;;;1.93;;
14116;SDS011;7137;51.436;6.544;2023-01-30T11:13:55;14.50;;;2.80;;
14116;SDS011;7137;51.436;6.544;2023-01-30T11:17:01;10.77;;;2.13;;
14116;SDS011;7137;51.436;6.544;2023-01-30T11:20:05;12.90;;;2.47;;
14116;SDS011;7137;51.436;6.544;2023-01-30T11:23:22;9.93;;;2.23;;
14116;SDS011;7137;51.436;6.544;2023-01-30T11:26:28;10.97;;;2.57;;
14116;SDS011;7137;51.436;6.544;2023-01-30T11:29:33;10.03;;;2.70;;
14116;SDS011;7137;51.436;6.544;2023-01-30T11:32:35;8.37;;;1.80;;
14116;SDS011;7137;51.436;6.544;2023-01-30T11:35:37;8.23;;;1.90;;
14116;SDS011;7137;51.436;6.544;2023-01-30T11:38:51;9.37;;;2.20;;
14116;SDS011;7137;51.436;6.544;2023-01-30T11:41:59;9.80;;;2.27;;
14116;SDS011;7137;51.436;6.544;2023-01-30T11:45:09;10.17;;;2.27;;
14116;SDS011;7137;51.436;6.544;2023-01-30T11:48:13;12.57;;;2.53;;
14116;SDS011;7137;51.436;6.544;2023-01-30T11:51:18;13.33;;;2.27;;
14116;SDS011;7137;51.436;6.544;2023-01-30T11:54:24;7.23;;;1.93;;
14116;SDS011;7137;51.436;6.544;2023-01-30T11:57:37;13.47;;;2.60;;
14116;SDS011;7137;51.436;6.544;2023-01-30T12:00:42;11.90;;;2.37;;
14116;SDS011;7137;51.436;6.544;2023-01-30T12:03:48;13.10;;;2.40;;
14116;SDS011;7137;51.436;6.544;2023-01-30T12:07:03;11.23;;;2.27;;
14116;SDS011;7137;51.436;6.544;2023-01-30T12:10:18;8.50;;;1.73;;
14116;SDS011;7137;51.436;6.544;2023-01-30T12:13:30;11.53;;;1.90;;
14116;SDS011;7137;51.436;6.544;2023-01-30T12:16:43;13.43;;;2.30;;
14116;SDS011;7137;51.436;6.544;2023-01-30T12:19:53;13.43;;;2.60;;
14116;SDS011;7137;51.436;6.544;2023-01-30T12:23:03;15.17;;;2.40;;
14116;SDS011;7137;51.436;6.544;2023-01-30T12:26:13;14.73;;;2.40;;
14116;SDS011;7137;51.436;6.544;2023-01-30T12:29:22;17.43;;;2.57;;
14116;SDS011;7137;51.436;6.544;2023-01-30T12:32:31;14.40;;;3.00;;
14116;SDS011;7137;51.436;6.544;2023-01-30T12:35:46;15.30;;;2.77;;
14116;SDS011;7137;51.436;6.544;2023-01-30T12:39:03;12.57;;;2.57;;
14116;SDS011;7137;51.436;6.544;2023-01-30T12:42:17;11.90;;;2.30;;
14116;SDS011;7137;51.436;6.544;2023-01-30T12:45:29;11.77;;;2.80;;
14116;SDS011;7137;51.436;6.544;2023-01-30T12:48:37;13.80;;;3.10;;
14116;SDS011;7137;51.436;6.544;2023-01-30T12:51:54;15.60;;;3.23;;
14116;SDS011;7137;51.436;6.544;2023-01-30T12:55:08;12.43;;;2.47;;
14116;SDS011;7137;51.436;6.544;2023-01-30T12:58:23;10.10;;;1.90;;
14116;SDS011;7137;51.436;6.544;2023-01-30T13:01:32;16.10;;;2.80;;
14116;SDS011;7137;51.436;6.544;2023-01-30T13:04:46;18.50;;;3.37;;
14116;SDS011;7137;51.436;6.544;2023-01-30T13:08:01;10.80;;;2.50;;
14116;SDS011;7137;51.436;6.544;2023-01-30T13:11:15;8.90;;;2.57;;
14116;SDS011;7137;51.436;6.544;2023-01-30T13:14:32;15.07;;;2.90;;
14116;SDS011;7137;51.436;6.544;2023-01-30T13:17:41;14.87;;;2.80;;
14116;SDS011;7137;51.436;6.544;2023-01-30T13:20:55;13.93;;;2.80;;
14116;SDS011;7137;51.436;6.544;2023-01-30T13:24:07;18.03;;;2.63;;
14116;SDS011;7137;51.436;6.544;2023-01-30T13:27:18;15.27;;;2.80;;
14116;SDS011;7137;51.436;6.544;2023-01-30T13:30:21;18.23;;;2.97;;
14116;SDS011;7137;51.436;6.544;2023-01-30T13:33:27;15.30;;;3.10;;
14116;SDS011;7137;51.436;6.544;2023-01-30T13:36:36;13.27;;;2.77;;
14116;SDS011;7137;51.436;6.544;2023-01-30T13:39:43;15.37;;;2.83;;
14116;SDS011;7137;51.436;6.544;2023-01-30T13:42:50;13.20;;;2.90;;
14116;SDS011;7137;51.436;6.544;2023-01-30T13:45:56;12.73;;;2.80;;
14116;SDS011;7137;51.436;6.544;2023-01-30T13:49:04;16.63;;;3.20;;
14116;SDS011;7137;51.436;6.544;2023-01-30T13:52:13;14.17;;;2.87;;
14116;SDS011;7137;51.436;6.544;2023-01-30T13:55:25;13.20;;;2.50;;
14116;SDS011;7137;51.436;6.544;2023-01-30T13:58:38;11.30;;;2.53;;
14116;SDS011;7137;51.436;6.544;2023-01-30T14:05:09;16.23;;;2.93;;
14116;SDS011;7137;51.436;6.544;2023-01-30T14:08:14;15.23;;;2.80;;
14116;SDS011;7137;51.436;6.544;2023-01-30T14:11:24;19.30;;;3.50;;
14116;SDS011;7137;51.436;6.544;2023-01-30T14:14:30;14.07;;;2.93;;
14116;SDS011;7137;51.436;6.544;2023-01-30T14:17:32;13.30;;;2.97;;
14116;SDS011;7137;51.436;6.544;2023-01-30T14:20:34;15.90;;;3.20;;
14116;SDS011;7137;51.436;6.544;2023-01-30T14:23:38;13.00;;;3.40;;
14116;SDS011;7137;51.436;6.544;2023-01-30T14:30:34;19.83;;;3.00;;
14116;SDS011;7137;51.436;6.544;2023-01-30T14:33:46;13.57;;;3.13;;
14116;SDS011;7137;51.436;6.544;2023-01-30T14:36:49;15.37;;;3.03;;
14116;SDS011;7137;51.436;6.544;2023-01-30T14:39:54;14.00;;;2.97;;
14116;SDS011;7137;51.436;6.544;2023-01-30T14:46:43;18.00;;;3.20;;
14116;SDS011;7137;51.436;6.544;2023-01-30T14:49:48;18.37;;;3.07;;
14116;SDS011;7137;51.436;6.544;2023-01-30T14:52:53;14.10;;;3.07;;
14116;SDS011;7137;51.436;6.544;2023-01-30T14:56:00;17.10;;;2.93;;
14116;SDS011;7137;51.436;6.544;2023-01-30T14:59:04;15.57;;;2.70;;
14116;SDS011;7137;51.436;6.544;2023-01-30T15:02:17;16.00;;;3.10;;
14116;SDS011;7137;51.436;6.544;2023-01-30T15:05:26;18.27;;;3.57;;
14116;SDS011;7137;51.436;6.544;2023-01-30T15:08:31;13.07;;;2.57;;
14116;SDS011;7137;51.436;6.544;2023-01-30T15:11:35;14.57;;;3.40;;
14116;SDS011;7137;51.436;6.544;2023-01-30T15:14:37;12.33;;;2.70;;
14116;SDS011;7137;51.436;6.544;2023-01-30T15:17:52;11.63;;;2.70;;
14116;SDS011;7137;51.436;6.544;2023-01-30T15:21:20;13.47;;;3.03;;
14116;SDS011;7137;51.436;6.544;2023-01-30T15:24:42;15.63;;;3.30;;
14116;SDS011;7137;51.436;6.544;2023-01-30T15:28:04;18.67;;;3.73;;
14116;SDS011;7137;51.436;6.544;2023-01-30T15:31:15;18.07;;;3.60;;
14116;SDS011;7137;51.436;6.544;2023-01-30T15:34:20;15.90;;;3.20;;
14116;SDS011;7137;51.436;6.544;2023-01-30T15:37:29;14.90;;;3.20;;
14116;SDS011;7137;51.436;6.544;2023-01-30T15:40:33;14.80;;;3.17;;
14116;SDS011;7137;51.436;6.544;2023-01-30T15:43:48;19.83;;;3.47;;
14116;SDS011;7137;51.436;6.544;2023-01-30T15:47:08;13.03;;;3.37;;
14116;SDS011;7137;51.436;6.544;2023-01-30T15:50:18;16.33;;;3.20;;
14116;SDS011;7137;51.436;6.544;2023-01-30T15:53:23;16.37;;;3.20;;
14116;SDS011;7137;51.436;6.544;2023-01-30T15:56:28;19.30;;;4.10;;
14116;SDS011;7137;51.436;6.544;2023-01-30T15:59:34;20.77;;;3.50;;
14116;SDS011;7137;51.436;6.544;2023-01-30T16:02:37;15.87;;;2.87;;
14116;SDS011;7137;51.436;6.544;2023-01-30T16:05:46;16.17;;;3.50;;
14116;SDS011;7137;51.436;6.544;2023-01-30T16:08:58;17.73;;;3.37;;
14116;SDS011;7137;51.436;6.544;2023-01-30T16:12:01;14.17;;;2.70;;
14116;SDS011;7137;51.436;6.544;2023-01-30T16:15:04;14.57;;;2.70;;
14116;SDS011;7137;51.436;6.544;2023-01-30T16:18:09;16.40;;;3.20;;
14116;SDS011;7137;51.436;6.544;2023-01-30T16:21:20;13.93;;;3.17;;
14116;SDS011;7137;51.436;6.544;2023-01-30T16:24:26;16.97;;;3.40;;
14116;SDS011;7137;51.436;6.544;2023-01-30T16:27:31;13.57;;;3.20;;
14116;SDS011;7137;51.436;6.544;2023-01-30T16:30:37;19.93;;;3.43;;
14116;SDS011;7137;51.436;6.544;2023-01-30T16:33:41;15.17;;;3.23;;
14116;SDS011;7137;51.436;6.544;2023-01-30T16:36:49;18.53;;;3.20;;
14116;SDS011;7137;51.436;6.544;2023-01-30T16:40:00;16.97;;;3.33;;
14116;SDS011;7137;51.436;6.544;2023-01-30T16:43:13;15.70;;;3.37;;
14116;SDS011;7137;51.436;6.544;2023-01-30T16:49:57;17.77;;;3.30;;
14116;SDS011;7137;51.436;6.544;2023-01-30T16:52:59;18.97;;;3.10;;
14116;SDS011;7137;51.436;6.544;2023-01-30T16:56:01;17.27;;;3.37;;
14116;SDS011;7137;51.436;6.544;2023-01-30T16:59:11;16.07;;;3.17;;
14116;SDS011;7137;51.436;6.544;2023-01-30T17:02:24;19.27;;;3.37;;
14116;SDS011;7137;51.436;6.544;2023-01-30T17:05:36;15.70;;;3.47;;
14116;SDS011;7137;51.436;6.544;2023-01-30T17:08:46;14.27;;;3.20;;
14116;SDS011;7137;51.436;6.544;2023-01-30T17:11:51;20.63;;;3.57;;
14116;SDS011;7137;51.436;6.544;2023-01-30T17:14:59;18.60;;;3.33;;
14116;SDS011;7137;51.436;6.544;2023-01-30T17:18:35;17.93;;;3.70;;
14116;SDS011;7137;51.436;6.544;2023-01-30T17:21:40;17.90;;;3.87;;
14116;SDS011;7137;51.436;6.544;2023-01-30T17:24:44;18.77;;;3.80;;
14116;SDS011;7137;51.436;6.544;2023-01-30T17:27:46;14.80;;;3.47;;
14116;SDS011;7137;51.436;6.544;2023-01-30T17:30:48;19.87;;;3.97;;
14116;SDS011;7137;51.436;6.544;2023-01-30T17:33:51;19.63;;;3.50;;
14116;SDS011;7137;51.436;6.544;2023-01-30T17:36:53;14.87;;;3.50;;
14116;SDS011;7137;51.436;6.544;2023-01-30T17:39:55;17.63;;;3.80;;
14116;SDS011;7137;51.436;6.544;2023-01-30T17:42:56;20.87;;;4.00;;
14116;SDS011;7137;51.436;6.544;2023-01-30T17:45:58;17.00;;;3.00;;
14116;SDS011;7137;51.436;6.544;2023-01-30T17:49:02;19.50;;;3.70;;
14116;SDS011;7137;51.436;6.544;2023-01-30T17:52:03;25.07;;;3.50;;
14116;SDS011;7137;51.436;6.544;2023-01-30T17:55:06;19.90;;;3.93;;
14116;SDS011;7137;51.436;6.544;2023-01-30T17:58:13;15.90;;;3.73;;
14116;SDS011;7137;51.436;6.544;2023-01-30T18:01:16;20.70;;;4.33;;
14116;SDS011;7137;51.436;6.544;2023-01-30T18:04:19;20.27;;;4.13;;
14116;SDS011;7137;51.436;6.544;2023-01-30T18:07:21;25.80;;;3.30;;
14116;SDS011;7137;51.436;6.544;2023-01-30T18:10:23;18.03;;;3.73;;
14116;SDS011;7137;51.436;6.544;2023-01-30T18:13:25;16.57;;;3.63;;
14116;SDS011;7137;51.436;6.544;2023-01-30T18:16:27;14.83;;;3.73;;
14116;SDS011;7137;51.436;6.544;2023-01-30T18:19:32;17.60;;;3.53;;
14116;SDS011;7137;51.436;6.544;2023-01-30T18:22:33;17.27;;;3.83;;
14116;SDS011;7137;51.436;6.544;2023-01-30T18:25:35;13.87;;;3.27;;
14116;SDS011;7137;51.436;6.544;2023-01-30T18:28:36;17.40;;;3.40;;
14116;SDS011;7137;51.436;6.544;2023-01-30T18:31:39;19.10;;;3.63;;
14116;SDS011;7137;51.436;6.544;2023-01-30T18:34:42;16.87;;;3.23;;
14116;SDS011;7137;51.436;6.544;2023-01-30T18:37:44;15.70;;;2.93;;
14116;SDS011;7137;51.436;6.544;2023-01-30T18:40:45;17.30;;;3.70;;
14116;SDS011;7137;51.436;6.544;2023-01-30T18:43:52;16.20;;;3.60;;
14116;SDS011;7137;51.436;6.544;2023-01-30T18:46:55;17.37;;;3.43;;
14116;SDS011;7137;51.436;6.544;2023-01-30T18:49:58;17.97;;;3.83;;
14116;SDS011;7137;51.436;6.544;2023-01-30T18:53:00;16.23;;;3.20;;
14116;SDS011;7137;51.436;6.544;2023-01-30T18:56:01;16.40;;;3.70;;